Time;durP1;ratioP1;P1;durP2;ratioP2;P2;SDS_P1;SDS_P2;PMS_P1;PMS_P2;Temp;Humidity;BMP_temperature;BMP_pressure;BME280_temperature;BME280_humidity;BME280_pressure;Samples;Min_cycle;Max_cycle;Signal;HPM_P1;HPM_P2
2021/04/07 00:00:04;;;;;;;2.57;1.53;;;-2.30;99.90;;;;;;4994785;28;20415;-77
2021/04/07 00:02:30;;;;;;;3.33;2.20;;;-2.30;99.90;;;;;;4995726;28;20407;-77
2021/04/07 00:05:02;;;;;;;3.20;1.90;;;-2.30;99.90;;;;;;4995569;28;20510;-77
2021/04/07 00:07:28;;;;;;;2.90;1.53;;;-1.60;99.90;;;;;;4995822;28;20682;-77
2021/04/07 00:09:53;;;;;;;2.63;1.60;;;-2.20;99.90;;;;;;4995706;28;20451;-77
2021/04/07 00:12:19;;;;;;;4.63;2.30;;;-2.20;99.90;;;;;;4996029;28;20168;-77
2021/04/07 00:14:45;;;;;;;3.10;2.17;;;-2.30;99.90;;;;;;4995513;28;20175;-77
2021/04/07 00:17:11;;;;;;;2.77;1.87;;;-2.20;99.90;;;;;;4995473;28;20244;-76
2021/04/07 00:19:37;;;;;;;1.60;1.40;;;-2.20;99.90;;;;;;4995465;28;20407;-76
2021/04/07 00:22:03;;;;;;;3.77;2.10;;;-2.20;99.90;;;;;;4995597;28;20179;-77
2021/04/07 00:24:28;;;;;;;1.90;1.70;;;-2.10;99.90;;;;;;4995065;28;20180;-76
2021/04/07 00:26:54;;;;;;;3.23;2.07;;;-2.10;99.90;;;;;;4995129;28;20211;-77
2021/04/07 00:29:19;;;;;;;2.37;1.57;;;-2.10;99.90;;;;;;4994210;28;20553;-77
2021/04/07 00:31:45;;;;;;;4.33;2.00;;;-2.00;99.90;;;;;;4994100;28;20175;-77
2021/04/07 00:34:11;;;;;;;3.07;1.67;;;-2.00;99.90;;;;;;4995224;28;20187;-76
2021/04/07 00:36:36;;;;;;;2.50;1.97;;;-2.10;99.90;;;;;;4995246;28;20192;-77
2021/04/07 00:39:03;;;;;;;2.33;2.13;;;-2.10;99.90;;;;;;4995346;28;20211;-76
2021/04/07 00:41:29;;;;;;;1.80;1.50;;;-2.00;99.90;;;;;;4994979;28;20646;-76
2021/04/07 00:43:54;;;;;;;2.37;1.80;;;-2.00;99.90;;;;;;4995025;28;20460;-76
2021/04/07 00:46:20;;;;;;;1.93;1.63;;;-2.10;99.90;;;;;;4994755;28;20231;-78
2021/04/07 00:48:46;;;;;;;1.93;1.33;;;-2.10;99.90;;;;;;4994964;28;20195;-77
2021/04/07 00:51:12;;;;;;;2.87;1.83;;;-2.00;99.90;;;;;;4994960;28;20669;-76
2021/04/07 00:53:38;;;;;;;1.73;1.57;;;-2.00;99.90;;;;;;4995007;28;20171;-76
2021/04/07 00:56:04;;;;;;;2.43;1.77;;;-2.00;99.90;;;;;;4994739;28;20411;-77
2021/04/07 00:58:30;;;;;;;2.30;2.10;;;-2.00;99.90;;;;;;4994872;28;20193;-76
2021/04/07 01:00:56;;;;;;;7.90;2.10;;;-2.00;99.90;;;;;;4994525;28;20904;-77
2021/04/07 01:03:21;;;;;;;3.40;2.20;;;-1.90;99.90;;;;;;4994894;28;20194;-77
2021/04/07 01:05:47;;;;;;;2.07;1.90;;;-1.90;99.90;;;;;;4994548;28;20207;-76
2021/04/07 01:08:13;;;;;;;1.93;1.50;;;-2.00;99.90;;;;;;4994782;28;20199;-77
2021/04/07 01:10:39;;;;;;;2.53;2.10;;;-2.00;99.90;;;;;;4995074;28;20604;-76
2021/04/07 01:13:05;;;;;;;3.87;2.20;;;-1.90;99.90;;;;;;4994789;28;20601;-77
2021/04/07 01:15:30;;;;;;;3.93;1.70;;;-1.90;99.90;;;;;;4994376;28;20179;-76
2021/04/07 01:17:57;;;;;;;2.90;1.70;;;-1.90;99.90;;;;;;4994599;28;20204;-77
2021/04/07 01:20:23;;;;;;;5.47;2.00;;;-1.90;99.90;;;;;;4994523;28;20237;-76
2021/04/07 01:22:59;;;;;;;3.00;2.13;;;-1.90;99.90;;;;;;4994463;28;20453;-77
2021/04/07 01:25:25;;;;;;;2.77;2.00;;;-1.90;99.90;;;;;;4994143;28;20885;-77
2021/04/07 01:27:51;;;;;;;3.70;2.03;;;-1.90;99.90;;;;;;4994090;28;20426;-77
2021/04/07 01:30:18;;;;;;;3.70;1.93;;;-1.90;99.90;;;;;;4994176;28;20277;-77
2021/04/07 01:32:44;;;;;;;3.80;1.90;;;-1.90;99.90;;;;;;4994221;28;20429;-76
2021/04/07 01:35:13;;;;;;;2.93;2.10;;;-2.00;99.90;;;;;;4994118;28;20411;-77
2021/04/07 01:37:39;;;;;;;2.97;2.47;;;-2.00;99.90;;;;;;4992079;28;20438;-77
2021/04/07 01:40:11;;;;;;;1.80;1.70;;;-2.20;99.90;;;;;;4994022;28;20403;-77
2021/04/07 01:42:37;;;;;;;2.97;2.03;;;-2.20;99.90;;;;;;4994378;28;20480;-77
2021/04/07 01:45:05;;;;;;;5.93;2.30;;;-2.20;99.90;;;;;;4994099;28;20414;-77
2021/04/07 01:47:35;;;;;;;3.20;2.00;;;-2.20;99.90;;;;;;4992845;28;20438;-77
2021/04/07 01:50:03;;;;;;;1.50;1.40;;;-2.10;99.90;;;;;;4994084;28;20501;-76
2021/04/07 01:52:29;;;;;;;4.07;1.87;;;-2.10;99.90;;;;;;4993938;28;20804;-76
2021/04/07 01:54:56;;;;;;;3.43;1.77;;;-2.10;99.90;;;;;;4993789;28;20422;-77
2021/04/07 01:57:22;;;;;;;3.53;1.90;;;-2.10;99.90;;;;;;4993874;28;20297;-77
2021/04/07 01:59:48;;;;;;;1.97;1.77;;;-2.10;99.90;;;;;;4994064;28;20772;-77
2021/04/07 02:02:14;;;;;;;2.03;1.80;;;-2.10;99.90;;;;;;4994023;28;20414;-77
2021/04/07 02:04:40;;;;;;;3.03;1.70;;;-2.10;99.90;;;;;;4992595;28;20434;-77
2021/04/07 02:07:11;;;;;;;2.67;1.70;;;-2.20;99.90;;;;;;4993988;28;20195;-77
2021/04/07 02:09:37;;;;;;;2.57;1.83;;;-2.20;99.90;;;;;;4993924;28;20454;-77
2021/04/07 02:12:03;;;;;;;1.90;1.60;;;-2.20;99.90;;;;;;4994046;28;20406;-77
2021/04/07 02:14:29;;;;;;;2.83;2.10;;;-2.20;99.90;;;;;;4992412;28;20192;-76
2021/04/07 02:17:00;;;;;;;2.23;1.83;;;-2.20;99.90;;;;;;4993812;28;20447;-78
2021/04/07 02:19:27;;;;;;;3.80;2.10;;;-2.30;99.90;;;;;;4994172;28;20175;-77
2021/04/07 02:22:08;;;;;;;2.17;1.93;;;-2.20;99.90;;;;;;4993932;28;20414;-76
2021/04/07 02:24:45;;;;;;;4.03;2.30;;;-2.20;99.90;;;;;;4993615;28;20410;-77
2021/04/07 02:27:18;;;;;;;2.40;2.13;;;-2.20;99.90;;;;;;4993742;28;20433;-76
2021/04/07 02:29:47;;;;;;;2.20;1.77;;;-2.20;99.90;;;;;;4992445;28;20987;-76
2021/04/07 02:32:13;;;;;;;2.17;1.70;;;-2.20;99.90;;;;;;4992597;28;20517;-76
2021/04/07 02:34:40;;;;;;;3.40;2.00;;;-2.10;99.90;;;;;;4992190;28;20944;-76
2021/04/07 02:37:06;;;;;;;3.87;2.30;;;-2.10;99.90;;;;;;4992386;28;20227;-76
2021/04/07 02:39:32;;;;;;;4.37;2.17;;;-2.20;99.90;;;;;;4993717;28;20739;-76
2021/04/07 02:41:58;;;;;;;2.50;2.30;;;-2.20;99.90;;;;;;4993737;28;20402;-76
2021/04/07 02:44:24;;;;;;;2.70;2.20;;;-2.20;99.90;;;;;;4993589;28;20468;-76
2021/04/07 02:46:50;;;;;;;3.63;1.87;;;-2.20;99.90;;;;;;4993533;28;20278;-76
2021/04/07 02:49:16;;;;;;;2.10;1.90;;;-2.10;99.90;;;;;;4995929;28;20934;-76
2021/04/07 02:51:41;;;;;;;4.17;2.00;;;-2.10;99.90;;;;;;4997750;28;20175;-76
2021/04/07 02:54:07;;;;;;;2.23;2.07;;;-2.10;99.90;;;;;;4997174;28;20756;-76
2021/04/07 02:56:33;;;;;;;3.70;2.30;;;-2.00;99.90;;;;;;4997086;28;20211;-76
2021/04/07 02:58:59;;;;;;;3.37;2.40;;;-2.00;99.90;;;;;;4997543;28;20175;-76
2021/04/07 03:01:25;;;;;;;7.23;2.70;;;-2.00;99.90;;;;;;4997152;28;20199;-77
2021/04/07 03:03:51;;;;;;;5.17;2.70;;;-2.00;99.90;;;;;;4997028;28;20411;-77
2021/04/07 03:06:18;;;;;;;3.07;2.37;;;-2.00;99.90;;;;;;4996742;28;20262;-77
2021/04/07 03:08:43;;;;;;;2.50;2.07;;;-2.00;99.90;;;;;;4995659;28;20187;-76
2021/04/07 03:11:10;;;;;;;3.53;2.10;;;-2.00;99.90;;;;;;4995484;28;20868;-76
2021/04/07 03:13:35;;;;;;;3.17;2.20;;;-2.10;99.90;;;;;;4996937;28;20178;-76
2021/04/07 03:16:01;;;;;;;2.87;2.37;;;-2.30;99.90;;;;;;4996342;28;20786;-77
2021/04/07 03:18:27;;;;;;;3.53;2.50;;;-2.30;99.90;;;;;;4997044;28;20630;-76
2021/04/07 03:20:52;;;;;;;4.00;3.10;;;-2.30;99.90;;;;;;4996517;28;20254;-77
2021/04/07 03:23:18;;;;;;;2.80;2.50;;;-2.40;99.90;;;;;;4996606;28;20267;-76
2021/04/07 03:25:43;;;;;;;3.53;2.90;;;-2.40;99.90;;;;;;4996547;28;20352;-76
2021/04/07 03:28:09;;;;;;;4.23;3.13;;;-2.50;99.90;;;;;;4996658;28;20293;-76
2021/04/07 03:30:53;;;;;;;6.17;3.00;;;-2.50;99.90;;;;;;4996465;28;20292;-76
2021/04/07 03:33:23;;;;;;;4.97;2.70;;;-2.50;99.90;;;;;;4996531;28;20175;-76
2021/04/07 03:35:50;;;;;;;4.57;2.63;;;-2.60;99.90;;;;;;4996435;28;20889;-76
2021/04/07 03:38:16;;;;;;;3.10;2.53;;;-2.60;99.90;;;;;;4996152;28;20426;-76
2021/04/07 03:40:42;;;;;;;2.50;2.30;;;-2.60;99.90;;;;;;4996134;28;20410;-76
2021/04/07 03:43:09;;;;;;;3.37;2.80;;;-2.60;99.90;;;;;;5028040;28;20558;-76
2021/04/07 03:45:36;;;;;;;2.60;2.27;;;-2.60;99.90;;;;;;4994945;28;20434;-76
2021/04/07 03:48:02;;;;;;;2.13;1.87;;;-2.60;99.90;;;;;;4995344;28;20795;-76
2021/04/07 03:50:28;;;;;;;3.50;2.30;;;-2.70;99.90;;;;;;4996088;28;20955;-76
2021/04/07 03:52:53;;;;;;;3.43;1.90;;;-2.80;99.90;;;;;;4996392;28;20422;-77
2021/04/07 03:55:19;;;;;;;3.07;2.30;;;-2.80;99.90;;;;;;4994660;28;20179;-76
2021/04/07 03:57:45;;;;;;;2.43;2.13;;;-2.80;99.90;;;;;;4995907;28;21277;-76
2021/04/07 04:00:11;;;;;;;2.47;2.27;;;-2.70;99.90;;;;;;4995332;28;20179;-77
2021/04/07 04:02:37;;;;;;;1.93;1.73;;;-2.70;99.90;;;;;;4994643;28;20188;-77
2021/04/07 04:05:04;;;;;;;2.80;1.90;;;-2.70;99.90;;;;;;4995840;28;20434;-77
2021/04/07 04:07:29;;;;;;;2.33;1.90;;;-2.80;99.90;;;;;;4996108;28;20199;-77
2021/04/07 04:09:55;;;;;;;2.70;1.83;;;-2.80;99.90;;;;;;4995852;28;20460;-77
2021/04/07 04:12:24;;;;;;;2.27;1.60;;;-2.80;99.90;;;;;;4995941;28;20211;-77
2021/04/07 04:14:49;;;;;;;2.87;2.07;;;-2.80;99.90;;;;;;4994862;28;20184;-76
2021/04/07 04:17:15;;;;;;;4.77;2.10;;;-2.80;99.90;;;;;;4996041;28;20795;-76
2021/04/07 04:19:43;;;;;;;6.23;2.30;;;-2.80;99.90;;;;;;4996063;28;20267;-77
2021/04/07 04:22:12;;;;;;;3.30;2.77;;;-2.80;99.90;;;;;;4994853;28;20188;-76
2021/04/07 04:24:37;;;;;;;3.27;1.93;;;-2.80;99.90;;;;;;4995767;28;20450;-76
2021/04/07 04:27:05;;;;;;;2.60;2.30;;;-2.80;99.90;;;;;;4994092;28;20490;-76
2021/04/07 04:29:30;;;;;;;3.37;2.13;;;-2.80;99.90;;;;;;4995479;28;20180;-76
2021/04/07 04:31:56;;;;;;;3.57;2.13;;;-2.80;99.90;;;;;;4995305;28;20430;-76
2021/04/07 04:34:21;;;;;;;3.33;2.43;;;-2.80;99.90;;;;;;4995168;28;20179;-76
2021/04/07 04:36:47;;;;;;;2.70;2.07;;;-2.80;99.90;;;;;;4995142;28;20657;-76
2021/04/07 04:39:13;;;;;;;2.87;2.10;;;-2.80;99.90;;;;;;4995357;28;20176;-76
2021/04/07 04:41:38;;;;;;;3.70;2.10;;;-2.80;99.90;;;;;;4993851;28;20633;-76
2021/04/07 04:44:04;;;;;;;5.20;2.30;;;-2.80;99.90;;;;;;4994884;28;20188;-76
2021/04/07 04:46:30;;;;;;;2.20;2.00;;;-2.80;99.90;;;;;;4995006;28;20203;-77
2021/04/07 04:48:56;;;;;;;2.00;1.73;;;-2.80;99.90;;;;;;4995208;28;20625;-77
2021/04/07 04:51:21;;;;;;;2.87;2.23;;;-2.80;99.90;;;;;;4993855;28;20293;-76
2021/04/07 04:53:47;;;;;;;4.97;3.00;;;-2.60;99.90;;;;;;4995036;28;20279;-76
2021/04/07 04:56:12;;;;;;;4.00;2.77;;;-2.80;99.90;;;;;;4994521;28;20603;-77
2021/04/07 04:58:38;;;;;;;3.20;2.57;;;-2.70;99.90;;;;;;5026474;28;20179;-76
2021/04/07 05:01:04;;;;;;;3.87;2.63;;;-2.70;99.90;;;;;;4994908;28;20564;-76
2021/04/07 05:03:29;;;;;;;3.50;2.63;;;-2.70;99.90;;;;;;4995082;28;20630;-77
2021/04/07 05:05:55;;;;;;;3.30;2.90;;;-2.70;99.90;;;;;;4993483;28;20633;-77
2021/04/07 05:08:20;;;;;;;4.17;3.33;;;-2.80;99.90;;;;;;4994757;28;20183;-77
2021/04/07 05:10:46;;;;;;;4.53;3.43;;;-2.80;99.90;;;;;;4994269;28;20203;-77
2021/04/07 05:13:12;;;;;;;9.17;4.50;;;-2.80;99.90;;;;;;4983599;28;20208;-76
2021/04/07 05:15:38;;;;;;;6.23;4.00;;;-2.80;99.90;;;;;;4979331;28;20879;-77
2021/04/07 05:18:14;;;;;;;8.63;4.77;;;-2.80;99.90;;;;;;4975232;28;20196;-76
2021/04/07 05:20:41;;;;;;;4.90;4.37;;;-2.80;99.90;;;;;;4974031;28;20303;-76
2021/04/07 05:23:08;;;;;;;4.97;2.77;;;-2.80;99.90;;;;;;4975045;28;20759;-77
2021/04/07 05:25:35;;;;;;;6.23;4.90;;;-2.80;99.90;;;;;;4974831;28;20478;-77
2021/04/07 05:28:05;;;;;;;4.47;3.37;;;-2.80;99.90;;;;;;4974931;28;20447;-77
2021/04/07 05:30:58;;;;;;;5.77;4.03;;;-2.80;99.90;;;;;;4975071;28;20494;-77
2021/04/07 05:33:21;;;;;;;4.13;3.20;;;-2.80;99.90;;;;;;4974329;28;20456;-76
2021/04/07 05:35:47;;;;;;;3.93;2.63;;;-2.70;99.90;;;;;;4974582;28;20503;-79
2021/04/07 05:38:13;;;;;;;3.33;2.90;;;-2.70;99.90;;;;;;4973471;28;20522;-76
2021/04/07 05:40:40;;;;;;;5.73;3.07;;;-2.60;99.90;;;;;;4974875;28;20183;-76
2021/04/07 05:43:05;;;;;;;6.20;3.23;;;-2.60;99.90;;;;;;4974819;28;20909;-77
2021/04/07 05:45:31;;;;;;;3.73;3.20;;;-1.90;99.90;;;;;;4974624;28;20426;-76
2021/04/07 05:47:57;;;;;;;4.07;3.43;;;-2.60;99.90;;;;;;4974573;28;20203;-77
2021/04/07 05:50:23;;;;;;;3.97;3.27;;;-2.60;99.90;;;;;;4974721;28;20207;-77
2021/04/07 05:52:52;;;;;;;4.13;2.90;;;-2.60;99.90;;;;;;4974678;28;20187;-76
2021/04/07 05:55:19;;;;;;;2.70;2.10;;;-2.50;99.90;;;;;;4973442;28;20267;-77
2021/04/07 05:58:05;;;;;;;3.00;2.70;;;-2.50;99.90;;;;;;4973468;28;20466;-77
2021/04/07 06:00:31;;;;;;;2.90;2.60;;;-2.50;99.90;;;;;;4973239;28;20448;-77
2021/04/07 06:02:58;;;;;;;14.77;8.17;;;-2.60;99.90;;;;;;4973384;28;20518;-77
2021/04/07 06:05:26;;;;;;;21.83;9.87;;;-2.60;99.90;;;;;;4973074;28;20423;-76
2021/04/07 06:07:51;;;;;;;9.10;5.37;;;-2.60;99.90;;;;;;4974357;28;20513;-76
2021/04/07 06:10:17;;;;;;;7.43;4.30;;;-1.90;99.90;;;;;;4974315;28;21040;-76
2021/04/07 06:12:43;;;;;;;6.20;3.40;;;-2.70;99.90;;;;;;4974867;28;20176;-76
2021/04/07 06:15:10;;;;;;;3.40;2.70;;;-2.60;99.90;;;;;;4974294;28;20422;-76
2021/04/07 06:17:37;;;;;;;3.00;2.60;;;-2.60;99.90;;;;;;4973095;28;20208;-76
2021/04/07 06:20:10;;;;;;;4.47;1.97;;;-2.70;99.90;;;;;;4974368;28;20505;-76
2021/04/07 06:22:37;;;;;;;4.40;3.00;;;-2.70;99.90;;;;;;4974636;28;20420;-77
2021/04/07 06:25:05;;;;;;;3.60;2.57;;;-2.70;99.90;;;;;;4976464;28;20455;-76
2021/04/07 06:27:31;;;;;;;3.73;2.83;;;-2.50;99.90;;;;;;4978190;28;20978;-76
2021/04/07 06:30:00;;;;;;;6.17;2.80;;;-2.50;99.90;;;;;;4978095;28;20834;-76
2021/04/07 06:32:29;;;;;;;3.93;2.83;;;-2.40;99.90;;;;;;4978082;28;20437;-76
2021/04/07 06:34:55;;;;;;;4.17;3.40;;;-2.30;99.90;;;;;;4978079;28;20411;-76
2021/04/07 06:37:21;;;;;;;3.90;3.20;;;-2.20;99.90;;;;;;4978122;28;20909;-76
2021/04/07 06:39:47;;;;;;;4.17;2.87;;;-2.00;99.90;;;;;;4976657;28;20216;-76
2021/04/07 06:42:14;;;;;;;6.43;2.70;;;-2.00;99.90;;;;;;4976506;28;20502;-76
2021/04/07 06:44:40;;;;;;;8.90;5.30;;;-1.90;99.90;;;;;;4977545;28;20422;-76
2021/04/07 06:47:06;;;;;;;8.67;6.30;;;-2.00;99.90;;;;;;4978166;28;20431;-76
2021/04/07 06:49:35;;;;;;;6.67;4.13;;;-1.80;99.90;;;;;;4976769;28;20188;-76
2021/04/07 06:52:02;;;;;;;8.03;4.57;;;-1.40;99.90;;;;;;4977823;28;20416;-76
2021/04/07 06:54:29;;;;;;;4.63;3.80;;;-1.40;99.90;;;;;;4976454;28;20430;-76
2021/04/07 06:56:56;;;;;;;6.07;4.20;;;-1.50;99.90;;;;;;4977657;28;20467;-76
2021/04/07 06:59:22;;;;;;;6.83;4.10;;;-1.40;99.90;;;;;;4977670;28;20415;-77
2021/04/07 07:01:48;;;;;;;44.63;28.77;;;-1.50;99.90;;;;;;4977514;28;20420;-76
2021/04/07 07:04:14;;;;;;;6.33;4.60;;;-1.30;99.90;;;;;;4976146;28;20430;-76
2021/04/07 07:06:40;;;;;;;6.23;4.20;;;-1.20;99.90;;;;;;4976411;28;20207;-77
2021/04/07 07:09:17;;;;;;;6.57;3.73;;;-1.20;99.90;;;;;;4977596;28;20423;-78
2021/04/07 07:11:48;;;;;;;5.60;4.50;;;-1.00;99.90;;;;;;4976156;28;20212;-77
2021/04/07 07:14:15;;;;;;;4.90;3.43;;;-1.10;99.90;;;;;;4977317;28;20959;-76
2021/04/07 07:16:49;;;;;;;6.17;4.30;;;-1.20;99.90;;;;;;4977360;28;20462;-77
2021/04/07 07:19:29;;;;;;;2.83;2.00;;;-1.40;99.90;;;;;;4977394;28;20408;-77
2021/04/07 07:22:02;;;;;;;5.27;3.30;;;-1.30;99.90;;;;;;4977690;28;20235;-77
2021/04/07 07:24:36;;;;;;;2.97;2.60;;;-1.30;99.90;;;;;;4977300;28;20184;-77
2021/04/07 07:27:09;;;;;;;4.40;3.53;;;-1.10;99.90;;;;;;4975981;28;20451;-77
2021/04/07 07:29:37;;;;;;;3.80;3.10;;;-0.80;99.90;;;;;;4977185;28;20416;-77
2021/04/07 07:32:11;;;;;;;4.47;3.57;;;-0.90;99.90;;;;;;4977241;28;20408;-77
2021/04/07 07:34:37;;;;;;;3.77;3.37;;;-0.90;99.90;;;;;;4974521;28;20442;-77
2021/04/07 07:37:05;;;;;;;3.60;2.13;;;-0.80;99.90;;;;;;4976719;28;20435;-77
2021/04/07 07:39:36;;;;;;;4.73;3.10;;;-0.80;99.90;;;;;;4977039;28;20439;-77
2021/04/07 07:42:09;;;;;;;4.40;2.73;;;-0.90;99.90;;;;;;4977123;28;20435;-77
2021/04/07 07:44:38;;;;;;;4.87;3.03;;;-1.20;99.90;;;;;;4975644;28;20425;-77
2021/04/07 07:47:15;;;;;;;6.77;3.00;;;-1.20;99.90;;;;;;4976908;28;20514;-77
2021/04/07 07:49:41;;;;;;;2.23;1.73;;;-1.20;99.90;;;;;;4975659;28;20218;-77
2021/04/07 07:52:07;;;;;;;3.70;2.23;;;-1.10;99.90;;;;;;4976928;28;20443;-77
2021/04/07 07:54:32;;;;;;;2.87;2.53;;;-1.20;99.90;;;;;;4976711;28;20227;-77
2021/04/07 07:56:58;;;;;;;2.80;1.73;;;-1.10;99.90;;;;;;4976401;28;20294;-77
2021/04/07 07:59:25;;;;;;;2.47;2.03;;;-1.20;99.90;;;;;;4975338;28;20267;-79
2021/04/07 08:01:51;;;;;;;3.50;2.40;;;-1.30;99.90;;;;;;4975220;28;20180;-77
2021/04/07 08:04:18;;;;;;;4.77;2.43;;;-1.20;99.90;;;;;;4976440;28;20180;-77
2021/04/07 08:06:47;;;;;;;2.97;2.20;;;-0.90;99.90;;;;;;4975373;28;20290;-77
2021/04/07 08:09:13;;;;;;;3.93;2.63;;;-0.70;99.90;;;;;;4976678;28;20439;-78
2021/04/07 08:11:43;;;;;;;2.57;2.00;;;-0.80;99.90;;;;;;4975250;28;20981;-78
2021/04/07 08:14:13;;;;;;;4.33;2.07;;;-0.70;99.90;;;;;;4974968;28;20187;-77
2021/04/07 08:16:39;;;;;;;3.00;2.50;;;-0.60;99.90;;;;;;4975162;28;20439;-79
2021/04/07 08:19:05;;;;;;;2.77;2.40;;;-0.50;99.90;;;;;;4975190;28;20914;-78
2021/04/07 08:21:31;;;;;;;3.57;2.67;;;-0.50;99.90;;;;;;4976617;28;20415;-78
2021/04/07 08:24:02;;;;;;;2.43;1.77;;;-0.60;99.90;;;;;;4976593;28;20184;-78
2021/04/07 08:26:30;;;;;;;3.93;1.60;;;-0.70;99.90;;;;;;4976541;28;20449;-78
2021/04/07 08:28:56;;;;;;;2.70;2.20;;;-0.50;99.90;;;;;;4976419;28;20176;-78
2021/04/07 08:31:24;;;;;;;3.63;2.07;;;0.20;99.90;;;;;;4975049;28;20470;-78
2021/04/07 08:33:53;;;;;;;1.50;1.40;;;0.30;99.90;;;;;;4975338;28;20667;-78
2021/04/07 08:36:21;;;;;;;5.77;1.97;;;0.10;99.90;;;;;;4976514;28;20439;-78
2021/04/07 08:38:46;;;;;;;2.23;1.73;;;0.30;99.90;;;;;;4975831;28;20455;-78
2021/04/07 08:41:18;;;;;;;3.47;2.13;;;0.80;99.90;;;;;;4975731;28;20422;-78
2021/04/07 08:43:45;;;;;;;3.83;2.33;;;0.90;99.90;;;;;;4976075;28;20275;-78
2021/04/07 08:46:23;;;;;;;2.23;2.03;;;0.70;99.90;;;;;;4976600;28;20474;-78
2021/04/07 08:48:49;;;;;;;4.77;2.30;;;0.30;99.90;;;;;;4976137;28;20424;-78
2021/04/07 08:51:17;;;;;;;2.53;1.50;;;0.20;99.90;;;;;;4976119;28;20506;-78
2021/04/07 08:53:48;;;;;;;3.27;1.87;;;1.10;99.90;;;;;;4978634;28;20542;-78
2021/04/07 08:56:26;;;;;;;2.13;1.90;;;1.30;99.90;;;;;;4978444;28;20744;-78
2021/04/07 08:58:54;;;;;;;3.03;2.03;;;1.00;99.90;;;;;;4979438;28;20419;-79
2021/04/07 09:01:33;;;;;;;2.50;1.57;;;0.70;99.90;;;;;;4980886;28;20411;-78
2021/04/07 09:04:09;;;;;;;2.70;1.77;;;0.40;99.90;;;;;;4980744;28;20914;-77
2021/04/07 09:06:58;;;;;;;5.53;2.07;;;0.40;99.90;;;;;;4980055;28;20447;-79
2021/04/07 09:09:25;;;;;;;4.03;2.13;;;0.00;99.90;;;;;;4978077;28;20500;-78
2021/04/07 09:11:52;;;;;;;3.20;1.73;;;-0.20;99.90;;;;;;4976384;28;20467;-78
2021/04/07 09:14:19;;;;;;;4.30;2.00;;;-0.10;99.90;;;;;;4976332;28;20514;-78
2021/04/07 09:16:45;;;;;;;4.70;3.90;;;0.40;99.90;;;;;;4976130;28;20467;-78
2021/04/07 09:19:15;;;;;;;2.33;1.73;;;0.70;99.90;;;;;;4977737;28;20407;-78
2021/04/07 09:22:04;;;;;;;2.03;1.83;;;0.80;99.90;;;;;;4978135;28;20641;-78
2021/04/07 09:24:40;;;;;;;2.20;1.97;;;0.30;99.90;;;;;;4977152;28;20828;-78
2021/04/07 09:27:06;;;;;;;3.80;2.53;;;0.30;99.90;;;;;;4978143;28;20435;-78
2021/04/07 09:29:40;;;;;;;6.50;2.27;;;1.30;99.90;;;;;;4978000;28;20419;-78
2021/04/07 09:32:16;;;;;;;2.83;1.70;;;1.80;99.90;;;;;;4978580;28;20439;-78
2021/04/07 09:34:42;;;;;;;3.20;2.33;;;2.40;99.90;;;;;;4979475;28;20415;-78
2021/04/07 09:37:08;;;;;;;5.03;2.40;;;2.60;99.90;;;;;;4978067;28;20486;-78
2021/04/07 09:39:36;;;;;;;3.50;2.83;;;2.20;98.20;;;;;;4979009;28;20184;-79
2021/04/07 09:42:03;;;;;;;3.70;2.90;;;1.90;99.80;;;;;;4978643;28;20271;-79
2021/04/07 09:44:29;;;;;;;4.87;2.50;;;2.00;99.90;;;;;;4978699;28;20411;-79
2021/04/07 09:46:56;;;;;;;4.37;3.03;;;1.70;99.90;;;;;;4977909;28;20458;-79
2021/04/07 09:49:26;;;;;;;4.23;2.30;;;1.70;99.90;;;;;;4979355;28;20296;-79
2021/04/07 09:51:52;;;;;;;3.70;1.80;;;1.20;99.70;;;;;;4978457;28;20455;-79
2021/04/07 09:54:40;;;;;;;6.57;3.50;;;1.20;99.90;;;;;;4978616;28;20408;-79
2021/04/07 09:57:10;;;;;;;4.90;2.10;;;0.90;99.90;;;;;;4978454;28;20291;-78
2021/04/07 09:59:45;;;;;;;5.30;2.47;;;1.80;99.90;;;;;;4977690;28;20458;-79
2021/04/07 10:02:23;;;;;;;3.53;1.80;;;1.60;99.90;;;;;;4978268;28;20638;-79
2021/04/07 10:04:50;;;;;;;11.30;7.73;;;1.90;99.90;;;;;;4976301;28;20474;-78
2021/04/07 10:07:23;;;;;;;7.23;3.47;;;1.90;99.90;;;;;;4977151;28;20208;-79
2021/04/07 10:09:57;;;;;;;2.17;1.73;;;2.20;99.90;;;;;;4975543;28;20824;-78
2021/04/07 10:12:25;;;;;;;5.50;3.23;;;2.40;97.70;;;;;;4976358;28;20244;-78
2021/04/07 10:14:59;;;;;;;5.63;3.00;;;2.30;97.80;;;;;;4974878;28;20271;-78
2021/04/07 10:17:27;;;;;;;3.30;2.10;;;2.20;98.60;;;;;;4976898;28;20210;-79
2021/04/07 10:19:52;;;;;;;2.97;1.90;;;2.30;98.70;;;;;;4974923;28;20770;-79
2021/04/07 10:22:27;;;;;;;2.03;1.73;;;2.50;98.10;;;;;;4976574;28;20205;-79
2021/04/07 10:24:58;;;;;;;4.07;3.40;;;2.40;97.30;;;;;;4977354;28;20157;-78
2021/04/07 10:27:25;;;;;;;4.33;3.20;;;1.80;98.20;;;;;;4974176;28;20794;-79
2021/04/07 10:30:06;;;;;;;3.20;2.00;;;1.80;98.70;;;;;;4976149;28;20182;-77
2021/04/07 10:32:48;;;;;;;7.37;2.83;;;2.10;98.70;;;;;;4976422;28;20161;-78
2021/04/07 10:35:25;;;;;;;3.50;2.00;;;2.00;97.20;;;;;;4973741;28;20634;-78
2021/04/07 10:38:02;;;;;;;3.90;1.80;;;2.00;98.30;;;;;;4973663;28;20347;-78
2021/04/07 10:40:37;;;;;;;3.50;2.57;;;1.50;99.90;;;;;;4974648;28;20167;-78
2021/04/07 10:43:13;;;;;;;3.10;2.43;;;1.10;99.90;;;;;;4973413;28;20700;-77
2021/04/07 10:45:39;;;;;;;3.20;2.20;;;1.30;99.90;;;;;;4974420;28;20191;-77
2021/04/07 10:48:05;;;;;;;2.80;1.83;;;1.90;99.90;;;;;;4984612;28;20208;-77
2021/04/07 10:50:39;;;;;;;3.33;2.20;;;3.00;99.90;;;;;;4983373;28;20193;-77
2021/04/07 10:53:05;;;;;;;2.90;2.03;;;3.40;99.90;;;;;;4981725;28;20674;-77
2021/04/07 10:55:32;;;;;;;1.80;1.70;;;3.50;98.90;;;;;;4985424;28;20658;-78
2021/04/07 10:58:02;;;;;;;2.20;1.70;;;3.10;98.60;;;;;;4992499;28;20262;-77
2021/04/07 11:00:34;;;;;;;2.87;1.57;;;2.90;98.00;;;;;;4991450;28;20191;-77
2021/04/07 11:03:00;;;;;;;2.40;1.93;;;2.50;95.30;;;;;;4992563;28;20234;-77
2021/04/07 11:05:39;;;;;;;3.47;2.20;;;2.00;96.10;;;;;;4992422;28;20271;-77
2021/04/07 11:08:06;;;;;;;4.27;2.60;;;2.00;98.10;;;;;;4993731;28;20203;-77
2021/04/07 11:10:43;;;;;;;6.27;3.43;;;2.00;99.90;;;;;;4996331;28;20559;-77
2021/04/07 11:13:11;;;;;;;5.63;3.03;;;2.80;99.90;;;;;;4997000;28;20164;-77
2021/04/07 11:15:37;;;;;;;6.97;4.30;;;3.50;99.60;;;;;;4996908;28;20908;-79
2021/04/07 11:18:03;;;;;;;6.90;5.37;;;3.90;98.90;;;;;;4997015;28;20192;-78
2021/04/07 11:20:29;;;;;;;7.10;3.67;;;3.40;99.60;;;;;;4997216;28;20192;-77
2021/04/07 11:22:55;;;;;;;7.17;4.60;;;2.80;99.90;;;;;;4996217;28;20553;-77
2021/04/07 11:25:21;;;;;;;6.43;4.00;;;3.00;99.90;;;;;;4995552;28;20266;-77
2021/04/07 11:27:50;;;;;;;8.93;2.77;;;2.70;99.90;;;;;;4996481;28;20616;-77
2021/04/07 11:30:16;;;;;;;5.47;3.90;;;2.70;99.90;;;;;;4996358;28;20204;-77
2021/04/07 11:32:49;;;;;;;8.97;3.77;;;2.60;99.90;;;;;;4995108;28;20181;-77
2021/04/07 11:35:22;;;;;;;11.10;4.47;;;2.30;99.90;;;;;;4996429;28;20341;-77
2021/04/07 11:38:00;;;;;;;7.07;1.67;;;1.80;99.90;;;;;;5027936;28;20196;-77
2021/04/07 11:45:43;;;;;;;10.43;4.63;;;0.40;99.90;;;;;;4996326;28;20417;-77
2021/04/07 11:48:09;;;;;;;8.67;5.17;;;0.50;99.90;;;;;;4996272;28;20362;-77
2021/04/07 11:50:35;;;;;;;4.00;2.93;;;0.90;99.90;;;;;;4996487;28;20298;-77
2021/04/07 11:53:01;;;;;;;4.17;2.30;;;1.30;99.90;;;;;;4996373;28;20182;-77
2021/04/07 11:55:27;;;;;;;7.20;4.50;;;1.80;99.90;;;;;;4996117;28;20776;-77
2021/04/07 11:57:53;;;;;;;7.13;5.00;;;2.00;99.90;;;;;;4994710;28;20226;-77
2021/04/07 12:00:19;;;;;;;2.77;1.70;;;1.80;99.90;;;;;;4996100;28;20176;-77
2021/04/07 12:02:46;;;;;;;6.17;3.73;;;1.40;99.90;;;;;;4996780;28;20650;-78
2021/04/07 12:05:18;;;;;;;3.73;2.70;;;1.10;99.90;;;;;;4996445;28;20477;-77
2021/04/07 12:07:44;;;;;;;7.23;4.23;;;0.60;99.90;;;;;;4994673;28;20439;-77
2021/04/07 12:10:10;;;;;;;4.20;1.77;;;0.40;99.90;;;;;;4996010;28;20209;-77
2021/04/07 12:12:36;;;;;;;7.07;4.37;;;0.10;99.90;;;;;;4995871;28;20190;-77
2021/04/07 12:15:02;;;;;;;10.50;5.23;;;0.40;99.90;;;;;;4995603;28;20419;-77
2021/04/07 12:17:28;;;;;;;12.53;7.33;;;1.30;99.90;;;;;;4995388;28;20206;-78
2021/04/07 12:19:54;;;;;;;9.07;4.83;;;2.60;99.90;;;;;;4995901;28;20422;-77
2021/04/07 12:22:19;;;;;;;9.63;5.27;;;3.10;99.90;;;;;;4994853;28;20211;-77
2021/04/07 12:24:45;;;;;;;6.93;3.87;;;2.90;99.90;;;;;;4995531;28;20179;-77
2021/04/07 12:27:11;;;;;;;13.80;7.40;;;2.30;99.90;;;;;;4995354;28;20207;-77
2021/04/07 12:29:37;;;;;;;7.23;4.90;;;1.90;99.90;;;;;;4995756;28;20183;-78
2021/04/07 12:32:03;;;;;;;6.07;3.70;;;1.80;99.90;;;;;;5025211;28;20207;-81
2021/04/07 12:34:28;;;;;;;3.47;2.50;;;2.50;99.90;;;;;;4995465;28;20180;-77
2021/04/07 12:36:57;;;;;;;3.70;2.00;;;2.10;99.90;;;;;;4995464;28;20286;-77
2021/04/07 12:39:24;;;;;;;4.70;2.70;;;2.10;99.90;;;;;;4994189;28;20275;-77
2021/04/07 12:41:53;;;;;;;5.10;2.53;;;2.50;99.90;;;;;;4986031;28;20273;-77
2021/04/07 12:44:19;;;;;;;1.63;1.50;;;2.90;99.90;;;;;;4996957;28;20766;-78
2021/04/07 12:46:45;;;;;;;4.17;2.10;;;2.40;99.90;;;;;;4994910;28;20439;-77
2021/04/07 12:49:11;;;;;;;2.90;2.07;;;2.20;99.90;;;;;;4984142;28;20275;-76
2021/04/07 12:51:37;;;;;;;3.60;1.80;;;2.50;99.90;;;;;;4988555;28;20207;-76
2021/04/07 12:54:02;;;;;;;3.60;1.90;;;3.00;99.90;;;;;;4977145;28;20708;-77
2021/04/07 12:56:30;;;;;;;3.03;1.83;;;2.90;99.90;;;;;;4989822;28;20212;-76
2021/04/07 12:58:56;;;;;;;4.83;2.30;;;2.60;99.90;;;;;;4973884;28;20172;-77